Terminal Aerodrome Forecast
Issued by NWS

Home | Current Version | Previous Version | Graphics & Text | Print | Product List | Glossary On
Versions: 1 2 3 4 5 6 7 8 9 10 11 12 13 14 15 16 17
220
FTUS43 KMPX 091738 CCA
TAFRWF
TAF COR
KRWF 091738Z 0918/1018 33012G20KT P6SM FEW020
     FM100200 32011KT P6SM SKC
     FM100600 34003KT P6SM SCT200=

USA.gov is the U.S. government's official web portal to all federal, state and local government web resources and services.